sensor_id;sensor_type;location;lat;lon;timestamp;P1;durP1;ratioP1;P2;durP2;ratioP2
46110;SDS011;31849;55.992;37.252;2024-03-17T00:03:55;41.08;;;8.63;;
46110;SDS011;31849;55.992;37.252;2024-03-17T00:08:58;40.88;;;8.27;;
46110;SDS011;31849;55.992;37.252;2024-03-17T00:14:03;38.60;;;8.23;;
46110;SDS011;31849;55.992;37.252;2024-03-17T00:19:06;39.97;;;8.93;;
46110;SDS011;31849;55.992;37.252;2024-03-17T00:24:08;40.85;;;8.38;;
46110;SDS011;31849;55.992;37.252;2024-03-17T00:29:12;32.20;;;7.35;;
46110;SDS011;31849;55.992;37.252;2024-03-17T00:34:15;39.63;;;7.47;;
46110;SDS011;31849;55.992;37.252;2024-03-17T00:39:18;37.30;;;7.28;;
46110;SDS011;31849;55.992;37.252;2024-03-17T00:44:22;34.20;;;7.75;;
46110;SDS011;31849;55.992;37.252;2024-03-17T00:49:25;32.23;;;7.50;;
46110;SDS011;31849;55.992;37.252;2024-03-17T00:54:27;42.35;;;8.32;;
46110;SDS011;31849;55.992;37.252;2024-03-17T00:59:31;33.30;;;8.02;;
46110;SDS011;31849;55.992;37.252;2024-03-17T01:04:34;34.55;;;8.02;;
46110;SDS011;31849;55.992;37.252;2024-03-17T01:09:36;39.63;;;7.35;;
46110;SDS011;31849;55.992;37.252;2024-03-17T01:14:40;33.17;;;6.65;;
46110;SDS011;31849;55.992;37.252;2024-03-17T01:19:43;31.97;;;7.60;;
46110;SDS011;31849;55.992;37.252;2024-03-17T01:24:45;45.80;;;9.02;;
46110;SDS011;31849;55.992;37.252;2024-03-17T01:29:50;33.05;;;7.10;;
46110;SDS011;31849;55.992;37.252;2024-03-17T01:34:52;42.77;;;7.80;;
46110;SDS011;31849;55.992;37.252;2024-03-17T01:39:54;26.42;;;7.00;;
46110;SDS011;31849;55.992;37.252;2024-03-17T01:44:58;20.52;;;7.20;;
46110;SDS011;31849;55.992;37.252;2024-03-17T01:50:01;34.43;;;9.00;;
46110;SDS011;31849;55.992;37.252;2024-03-17T01:55:04;29.08;;;6.63;;
46110;SDS011;31849;55.992;37.252;2024-03-17T02:00:09;30.15;;;7.05;;
46110;SDS011;31849;55.992;37.252;2024-03-17T02:05:13;35.08;;;7.30;;
46110;SDS011;31849;55.992;37.252;2024-03-17T02:10:15;38.33;;;7.80;;
46110;SDS011;31849;55.992;37.252;2024-03-17T02:15:20;35.15;;;6.80;;
46110;SDS011;31849;55.992;37.252;2024-03-17T02:20:43;28.52;;;7.15;;
46110;SDS011;31849;55.992;37.252;2024-03-17T02:26:01;32.53;;;7.80;;
46110;SDS011;31849;55.992;37.252;2024-03-17T02:31:04;33.03;;;7.88;;
46110;SDS011;31849;55.992;37.252;2024-03-17T02:36:09;41.67;;;9.10;;
46110;SDS011;31849;55.992;37.252;2024-03-17T02:41:14;29.13;;;7.43;;
46110;SDS011;31849;55.992;37.252;2024-03-17T02:46:17;34.33;;;7.82;;
46110;SDS011;31849;55.992;37.252;2024-03-17T02:51:21;28.73;;;8.68;;
46110;SDS011;31849;55.992;37.252;2024-03-17T02:56:26;31.13;;;7.43;;
46110;SDS011;31849;55.992;37.252;2024-03-17T03:01:29;31.97;;;6.57;;
46110;SDS011;31849;55.992;37.252;2024-03-17T03:06:31;28.52;;;8.20;;
46110;SDS011;31849;55.992;37.252;2024-03-17T03:11:35;38.85;;;8.00;;
46110;SDS011;31849;55.992;37.252;2024-03-17T03:16:38;44.03;;;7.80;;
46110;SDS011;31849;55.992;37.252;2024-03-17T03:21:40;44.65;;;7.13;;
46110;SDS011;31849;55.992;37.252;2024-03-17T03:26:44;28.08;;;7.40;;
46110;SDS011;31849;55.992;37.252;2024-03-17T03:31:47;29.70;;;7.37;;
46110;SDS011;31849;55.992;37.252;2024-03-17T03:36:49;25.88;;;8.38;;
46110;SDS011;31849;55.992;37.252;2024-03-17T03:41:54;34.03;;;7.82;;
46110;SDS011;31849;55.992;37.252;2024-03-17T03:46:56;38.67;;;9.00;;
46110;SDS011;31849;55.992;37.252;2024-03-17T03:52:01;43.95;;;7.78;;
46110;SDS011;31849;55.992;37.252;2024-03-17T03:57:05;34.50;;;10.07;;
46110;SDS011;31849;55.992;37.252;2024-03-17T04:02:08;33.23;;;8.33;;
46110;SDS011;31849;55.992;37.252;2024-03-17T04:07:10;40.17;;;8.77;;
46110;SDS011;31849;55.992;37.252;2024-03-17T04:12:14;47.45;;;8.80;;
46110;SDS011;31849;55.992;37.252;2024-03-17T04:17:16;38.53;;;11.13;;
46110;SDS011;31849;55.992;37.252;2024-03-17T04:22:19;31.13;;;9.48;;
46110;SDS011;31849;55.992;37.252;2024-03-17T04:27:24;35.45;;;9.60;;
46110;SDS011;31849;55.992;37.252;2024-03-17T04:32:27;37.45;;;9.10;;
46110;SDS011;31849;55.992;37.252;2024-03-17T04:37:29;29.52;;;8.57;;
46110;SDS011;31849;55.992;37.252;2024-03-17T04:42:33;47.88;;;9.38;;
46110;SDS011;31849;55.992;37.252;2024-03-17T04:47:36;36.17;;;8.10;;
46110;SDS011;31849;55.992;37.252;2024-03-17T04:52:39;34.55;;;8.57;;
46110;SDS011;31849;55.992;37.252;2024-03-17T04:57:43;33.22;;;8.48;;
46110;SDS011;31849;55.992;37.252;2024-03-17T05:02:46;33.73;;;8.53;;
46110;SDS011;31849;55.992;37.252;2024-03-17T05:07:48;33.88;;;8.82;;
46110;SDS011;31849;55.992;37.252;2024-03-17T05:12:53;33.03;;;8.63;;
46110;SDS011;31849;55.992;37.252;2024-03-17T05:22:58;31.95;;;9.25;;
46110;SDS011;31849;55.992;37.252;2024-03-17T05:28:02;36.38;;;9.57;;
46110;SDS011;31849;55.992;37.252;2024-03-17T05:33:05;39.50;;;10.02;;
46110;SDS011;31849;55.992;37.252;2024-03-17T05:38:08;34.85;;;9.23;;
46110;SDS011;31849;55.992;37.252;2024-03-17T05:43:12;38.40;;;9.43;;
46110;SDS011;31849;55.992;37.252;2024-03-17T05:48:15;26.52;;;9.23;;
46110;SDS011;31849;55.992;37.252;2024-03-17T05:53:18;34.78;;;9.85;;
46110;SDS011;31849;55.992;37.252;2024-03-17T05:58:22;39.78;;;10.20;;
46110;SDS011;31849;55.992;37.252;2024-03-17T06:03:25;32.03;;;9.82;;
46110;SDS011;31849;55.992;37.252;2024-03-17T06:08:27;42.67;;;9.98;;
46110;SDS011;31849;55.992;37.252;2024-03-17T06:13:31;43.33;;;10.40;;
46110;SDS011;31849;55.992;37.252;2024-03-17T06:18:34;40.35;;;9.77;;
46110;SDS011;31849;55.992;37.252;2024-03-17T06:23:38;36.65;;;10.57;;
46110;SDS011;31849;55.992;37.252;2024-03-17T06:28:42;36.08;;;10.50;;
46110;SDS011;31849;55.992;37.252;2024-03-17T06:33:45;31.88;;;10.25;;
46110;SDS011;31849;55.992;37.252;2024-03-17T06:38:48;33.17;;;12.40;;
46110;SDS011;31849;55.992;37.252;2024-03-17T06:43:53;34.72;;;10.57;;
46110;SDS011;31849;55.992;37.252;2024-03-17T06:48:55;33.97;;;11.07;;
46110;SDS011;31849;55.992;37.252;2024-03-17T06:54:00;25.17;;;10.00;;
46110;SDS011;31849;55.992;37.252;2024-03-17T06:59:04;39.13;;;10.55;;
46110;SDS011;31849;55.992;37.252;2024-03-17T07:04:06;26.60;;;9.73;;
46110;SDS011;31849;55.992;37.252;2024-03-17T07:09:09;36.10;;;11.05;;
46110;SDS011;31849;55.992;37.252;2024-03-17T07:14:13;32.33;;;9.43;;
46110;SDS011;31849;55.992;37.252;2024-03-17T07:19:16;33.37;;;10.17;;
46110;SDS011;31849;55.992;37.252;2024-03-17T07:24:18;30.48;;;10.68;;
46110;SDS011;31849;55.992;37.252;2024-03-17T07:29:22;35.55;;;10.65;;
46110;SDS011;31849;55.992;37.252;2024-03-17T07:34:25;33.00;;;10.10;;
46110;SDS011;31849;55.992;37.252;2024-03-17T07:39:28;26.88;;;10.00;;
46110;SDS011;31849;55.992;37.252;2024-03-17T07:44:34;36.38;;;9.82;;
46110;SDS011;31849;55.992;37.252;2024-03-17T07:49:37;25.80;;;9.47;;
46110;SDS011;31849;55.992;37.252;2024-03-17T07:54:39;29.00;;;10.20;;
46110;SDS011;31849;55.992;37.252;2024-03-17T07:59:43;21.70;;;10.00;;
46110;SDS011;31849;55.992;37.252;2024-03-17T08:09:49;29.08;;;10.15;;
46110;SDS011;31849;55.992;37.252;2024-03-17T08:14:53;30.35;;;10.32;;
46110;SDS011;31849;55.992;37.252;2024-03-17T08:19:55;23.20;;;9.57;;
46110;SDS011;31849;55.992;37.252;2024-03-17T08:24:58;31.73;;;10.57;;
46110;SDS011;31849;55.992;37.252;2024-03-17T08:30:02;27.02;;;11.15;;
46110;SDS011;31849;55.992;37.252;2024-03-17T08:35:05;36.30;;;12.10;;
46110;SDS011;31849;55.992;37.252;2024-03-17T08:40:08;33.53;;;10.82;;
46110;SDS011;31849;55.992;37.252;2024-03-17T08:45:13;32.85;;;10.80;;
46110;SDS011;31849;55.992;37.252;2024-03-17T08:50:15;33.17;;;10.95;;
46110;SDS011;31849;55.992;37.252;2024-03-17T08:55:18;28.45;;;10.68;;
46110;SDS011;31849;55.992;37.252;2024-03-17T09:00:22;28.88;;;10.43;;
46110;SDS011;31849;55.992;37.252;2024-03-17T09:05:24;32.27;;;10.20;;
46110;SDS011;31849;55.992;37.252;2024-03-17T09:10:27;33.35;;;11.52;;
46110;SDS011;31849;55.992;37.252;2024-03-17T09:15:31;30.38;;;11.35;;
46110;SDS011;31849;55.992;37.252;2024-03-17T09:20:33;31.30;;;10.70;;
46110;SDS011;31849;55.992;37.252;2024-03-17T09:25:36;26.70;;;10.40;;
46110;SDS011;31849;55.992;37.252;2024-03-17T09:30:40;30.63;;;10.60;;
46110;SDS011;31849;55.992;37.252;2024-03-17T09:35:55;31.00;;;11.07;;
46110;SDS011;31849;55.992;37.252;2024-03-17T09:41:00;31.52;;;10.88;;
46110;SDS011;31849;55.992;37.252;2024-03-17T09:46:04;29.20;;;11.18;;
46110;SDS011;31849;55.992;37.252;2024-03-17T09:51:08;26.83;;;11.02;;
46110;SDS011;31849;55.992;37.252;2024-03-17T09:56:20;31.45;;;10.70;;
46110;SDS011;31849;55.992;37.252;2024-03-17T10:01:25;29.45;;;10.80;;
46110;SDS011;31849;55.992;37.252;2024-03-17T10:06:28;28.00;;;11.15;;
46110;SDS011;31849;55.992;37.252;2024-03-17T10:11:32;34.00;;;10.52;;
46110;SDS011;31849;55.992;37.252;2024-03-17T10:16:38;26.92;;;10.75;;
46110;SDS011;31849;55.992;37.252;2024-03-17T10:21:41;26.93;;;10.33;;
46110;SDS011;31849;55.992;37.252;2024-03-17T10:26:46;32.40;;;11.18;;
46110;SDS011;31849;55.992;37.252;2024-03-17T10:31:53;35.00;;;10.35;;
46110;SDS011;31849;55.992;37.252;2024-03-17T10:42:11;25.80;;;10.53;;
46110;SDS011;31849;55.992;37.252;2024-03-17T10:47:18;28.50;;;10.20;;
46110;SDS011;31849;55.992;37.252;2024-03-17T10:52:23;28.17;;;9.85;;
46110;SDS011;31849;55.992;37.252;2024-03-17T10:57:30;29.60;;;10.27;;
46110;SDS011;31849;55.992;37.252;2024-03-17T11:02:36;28.30;;;10.15;;
46110;SDS011;31849;55.992;37.252;2024-03-17T11:07:39;31.17;;;10.85;;
46110;SDS011;31849;55.992;37.252;2024-03-17T11:12:47;37.03;;;10.57;;
46110;SDS011;31849;55.992;37.252;2024-03-17T11:22:56;30.38;;;10.27;;
46110;SDS011;31849;55.992;37.252;2024-03-17T11:27:59;34.87;;;10.83;;
46110;SDS011;31849;55.992;37.252;2024-03-17T11:33:05;28.52;;;9.88;;
46110;SDS011;31849;55.992;37.252;2024-03-17T11:38:52;39.55;;;11.32;;
46110;SDS011;31849;55.992;37.252;2024-03-17T11:49:18;30.80;;;10.40;;
46110;SDS011;31849;55.992;37.252;2024-03-17T11:54:23;35.83;;;10.93;;
46110;SDS011;31849;55.992;37.252;2024-03-17T11:59:28;33.60;;;11.45;;
46110;SDS011;31849;55.992;37.252;2024-03-17T12:04:32;36.42;;;10.30;;
46110;SDS011;31849;55.992;37.252;2024-03-17T12:09:34;27.30;;;9.70;;
46110;SDS011;31849;55.992;37.252;2024-03-17T12:14:37;40.08;;;12.57;;
46110;SDS011;31849;55.992;37.252;2024-03-17T12:19:44;38.70;;;11.32;;
46110;SDS011;31849;55.992;37.252;2024-03-17T12:24:48;36.67;;;10.48;;
46110;SDS011;31849;55.992;37.252;2024-03-17T12:29:52;35.57;;;12.70;;
46110;SDS011;31849;55.992;37.252;2024-03-17T12:34:57;32.13;;;10.10;;
46110;SDS011;31849;55.992;37.252;2024-03-17T12:40:00;32.78;;;10.70;;
46110;SDS011;31849;55.992;37.252;2024-03-17T12:45:09;28.80;;;11.10;;
46110;SDS011;31849;55.992;37.252;2024-03-17T12:50:13;35.42;;;10.98;;
46110;SDS011;31849;55.992;37.252;2024-03-17T12:55:18;29.77;;;10.85;;
46110;SDS011;31849;55.992;37.252;2024-03-17T13:00:38;40.88;;;11.43;;
46110;SDS011;31849;55.992;37.252;2024-03-17T13:05:42;34.67;;;10.30;;
46110;SDS011;31849;55.992;37.252;2024-03-17T13:10:49;33.47;;;10.40;;
46110;SDS011;31849;55.992;37.252;2024-03-17T13:15:52;31.10;;;11.15;;
46110;SDS011;31849;55.992;37.252;2024-03-17T13:20:56;33.38;;;10.60;;
46110;SDS011;31849;55.992;37.252;2024-03-17T13:25:58;39.40;;;12.50;;
46110;SDS011;31849;55.992;37.252;2024-03-17T13:31:01;34.70;;;10.98;;
46110;SDS011;31849;55.992;37.252;2024-03-17T13:36:07;29.15;;;10.25;;
46110;SDS011;31849;55.992;37.252;2024-03-17T13:41:10;29.13;;;10.82;;
46110;SDS011;31849;55.992;37.252;2024-03-17T13:46:13;37.28;;;11.23;;
46110;SDS011;31849;55.992;37.252;2024-03-17T13:51:17;33.70;;;12.07;;
46110;SDS011;31849;55.992;37.252;2024-03-17T13:56:19;36.63;;;11.33;;
46110;SDS011;31849;55.992;37.252;2024-03-17T14:01:22;35.92;;;11.13;;
46110;SDS011;31849;55.992;37.252;2024-03-17T14:06:26;35.58;;;10.10;;
46110;SDS011;31849;55.992;37.252;2024-03-17T14:11:28;36.70;;;10.83;;
46110;SDS011;31849;55.992;37.252;2024-03-17T14:16:31;37.55;;;11.68;;
46110;SDS011;31849;55.992;37.252;2024-03-17T14:21:36;40.03;;;10.98;;
46110;SDS011;31849;55.992;37.252;2024-03-17T14:26:38;31.90;;;10.83;;
46110;SDS011;31849;55.992;37.252;2024-03-17T14:31:41;40.67;;;11.93;;
46110;SDS011;31849;55.992;37.252;2024-03-17T14:36:46;37.92;;;10.88;;
46110;SDS011;31849;55.992;37.252;2024-03-17T14:41:48;54.23;;;12.13;;
46110;SDS011;31849;55.992;37.252;2024-03-17T14:46:51;49.65;;;12.50;;
46110;SDS011;31849;55.992;37.252;2024-03-17T14:51:56;55.92;;;12.95;;
46110;SDS011;31849;55.992;37.252;2024-03-17T14:56:59;48.58;;;12.27;;
46110;SDS011;31849;55.992;37.252;2024-03-17T15:02:02;52.38;;;11.90;;
46110;SDS011;31849;55.992;37.252;2024-03-17T15:07:06;56.75;;;12.75;;
46110;SDS011;31849;55.992;37.252;2024-03-17T15:12:09;68.97;;;13.70;;
46110;SDS011;31849;55.992;37.252;2024-03-17T15:17:11;47.80;;;12.45;;
46110;SDS011;31849;55.992;37.252;2024-03-17T15:22:17;67.37;;;13.27;;
46110;SDS011;31849;55.992;37.252;2024-03-17T15:27:22;59.40;;;12.95;;
46110;SDS011;31849;55.992;37.252;2024-03-17T15:32:24;69.93;;;14.77;;
46110;SDS011;31849;55.992;37.252;2024-03-17T15:37:29;56.28;;;14.88;;
46110;SDS011;31849;55.992;37.252;2024-03-17T15:42:32;70.13;;;14.37;;
46110;SDS011;31849;55.992;37.252;2024-03-17T15:47:35;60.42;;;15.35;;
46110;SDS011;31849;55.992;37.252;2024-03-17T15:52:39;56.33;;;14.35;;
46110;SDS011;31849;55.992;37.252;2024-03-17T15:57:43;56.92;;;12.27;;
46110;SDS011;31849;55.992;37.252;2024-03-17T16:02:47;66.53;;;12.60;;
46110;SDS011;31849;55.992;37.252;2024-03-17T16:07:51;52.60;;;12.57;;
46110;SDS011;31849;55.992;37.252;2024-03-17T16:12:54;58.43;;;13.93;;
46110;SDS011;31849;55.992;37.252;2024-03-17T16:17:56;62.25;;;12.52;;
46110;SDS011;31849;55.992;37.252;2024-03-17T16:23:00;62.65;;;12.95;;
46110;SDS011;31849;55.992;37.252;2024-03-17T16:28:04;64.40;;;12.38;;
46110;SDS011;31849;55.992;37.252;2024-03-17T16:33:07;56.17;;;12.80;;
46110;SDS011;31849;55.992;37.252;2024-03-17T16:38:11;71.10;;;11.52;;
46110;SDS011;31849;55.992;37.252;2024-03-17T16:43:17;46.83;;;10.77;;
46110;SDS011;31849;55.992;37.252;2024-03-17T16:48:23;56.17;;;11.57;;
46110;SDS011;31849;55.992;37.252;2024-03-17T16:53:27;58.92;;;10.85;;
46110;SDS011;31849;55.992;37.252;2024-03-17T16:58:31;53.45;;;11.25;;
46110;SDS011;31849;55.992;37.252;2024-03-17T17:03:34;56.72;;;11.48;;
46110;SDS011;31849;55.992;37.252;2024-03-17T17:08:39;57.92;;;11.63;;
46110;SDS011;31849;55.992;37.252;2024-03-17T17:13:43;62.03;;;11.35;;
46110;SDS011;31849;55.992;37.252;2024-03-17T17:18:47;61.70;;;12.07;;
46110;SDS011;31849;55.992;37.252;2024-03-17T17:23:54;47.38;;;9.75;;
46110;SDS011;31849;55.992;37.252;2024-03-17T17:28:57;72.10;;;11.45;;
46110;SDS011;31849;55.992;37.252;2024-03-17T17:34:01;54.47;;;10.80;;
46110;SDS011;31849;55.992;37.252;2024-03-17T17:39:05;56.55;;;11.93;;
46110;SDS011;31849;55.992;37.252;2024-03-17T17:44:09;53.60;;;11.68;;
46110;SDS011;31849;55.992;37.252;2024-03-17T17:49:11;54.78;;;11.90;;
46110;SDS011;31849;55.992;37.252;2024-03-17T17:54:15;64.35;;;12.40;;
46110;SDS011;31849;55.992;37.252;2024-03-17T17:59:18;61.17;;;11.27;;
46110;SDS011;31849;55.992;37.252;2024-03-17T18:04:21;67.38;;;11.95;;
46110;SDS011;31849;55.992;37.252;2024-03-17T18:09:25;62.72;;;13.25;;
46110;SDS011;31849;55.992;37.252;2024-03-17T18:14:30;63.30;;;12.45;;
46110;SDS011;31849;55.992;37.252;2024-03-17T18:19:34;60.20;;;12.00;;
46110;SDS011;31849;55.992;37.252;2024-03-17T18:24:39;60.72;;;12.43;;
46110;SDS011;31849;55.992;37.252;2024-03-17T18:29:43;64.70;;;12.60;;
46110;SDS011;31849;55.992;37.252;2024-03-17T18:34:46;68.65;;;13.60;;
46110;SDS011;31849;55.992;37.252;2024-03-17T18:39:50;69.25;;;12.82;;
46110;SDS011;31849;55.992;37.252;2024-03-17T18:44:52;57.50;;;11.68;;
46110;SDS011;31849;55.992;37.252;2024-03-17T18:49:55;64.30;;;12.63;;
46110;SDS011;31849;55.992;37.252;2024-03-17T18:54:58;57.17;;;11.88;;
46110;SDS011;31849;55.992;37.252;2024-03-17T19:00:01;75.27;;;13.03;;
46110;SDS011;31849;55.992;37.252;2024-03-17T19:05:05;66.75;;;13.02;;
46110;SDS011;31849;55.992;37.252;2024-03-17T19:10:12;49.38;;;12.10;;
46110;SDS011;31849;55.992;37.252;2024-03-17T19:15:19;67.38;;;13.43;;
46110;SDS011;31849;55.992;37.252;2024-03-17T19:20:24;63.63;;;13.40;;
46110;SDS011;31849;55.992;37.252;2024-03-17T19:25:27;54.65;;;12.18;;
46110;SDS011;31849;55.992;37.252;2024-03-17T19:30:30;58.63;;;12.75;;
46110;SDS011;31849;55.992;37.252;2024-03-17T19:35:32;63.88;;;12.45;;
46110;SDS011;31849;55.992;37.252;2024-03-17T19:40:36;57.53;;;12.05;;
46110;SDS011;31849;55.992;37.252;2024-03-17T19:45:39;63.83;;;14.77;;
46110;SDS011;31849;55.992;37.252;2024-03-17T19:50:42;59.08;;;12.60;;
46110;SDS011;31849;55.992;37.252;2024-03-17T19:55:47;65.13;;;13.38;;
46110;SDS011;31849;55.992;37.252;2024-03-17T20:00:53;46.92;;;12.73;;
46110;SDS011;31849;55.992;37.252;2024-03-17T20:05:55;63.03;;;13.23;;
46110;SDS011;31849;55.992;37.252;2024-03-17T20:11:00;59.00;;;12.88;;
46110;SDS011;31849;55.992;37.252;2024-03-17T20:16:03;54.78;;;14.27;;
46110;SDS011;31849;55.992;37.252;2024-03-17T20:21:06;50.13;;;13.73;;
46110;SDS011;31849;55.992;37.252;2024-03-17T20:26:12;53.37;;;12.37;;
46110;SDS011;31849;55.992;37.252;2024-03-17T20:36:20;54.17;;;13.90;;
46110;SDS011;31849;55.992;37.252;2024-03-17T20:41:27;60.92;;;14.32;;
46110;SDS011;31849;55.992;37.252;2024-03-17T20:46:30;65.07;;;14.57;;
46110;SDS011;31849;55.992;37.252;2024-03-17T20:51:32;60.05;;;15.23;;
46110;SDS011;31849;55.992;37.252;2024-03-17T20:56:36;63.83;;;14.15;;
46110;SDS011;31849;55.992;37.252;2024-03-17T21:01:38;59.83;;;13.73;;
46110;SDS011;31849;55.992;37.252;2024-03-17T21:06:41;64.03;;;14.10;;
46110;SDS011;31849;55.992;37.252;2024-03-17T21:11:45;68.43;;;14.80;;
46110;SDS011;31849;55.992;37.252;2024-03-17T21:16:49;74.88;;;14.52;;
46110;SDS011;31849;55.992;37.252;2024-03-17T21:21:52;70.85;;;14.70;;
46110;SDS011;31849;55.992;37.252;2024-03-17T21:26:56;64.60;;;13.80;;
46110;SDS011;31849;55.992;37.252;2024-03-17T21:31:58;59.22;;;14.23;;
46110;SDS011;31849;55.992;37.252;2024-03-17T21:37:01;70.32;;;15.10;;
46110;SDS011;31849;55.992;37.252;2024-03-17T21:42:05;64.95;;;14.82;;
46110;SDS011;31849;55.992;37.252;2024-03-17T21:47:08;60.53;;;14.23;;
46110;SDS011;31849;55.992;37.252;2024-03-17T21:52:12;63.72;;;14.55;;
46110;SDS011;31849;55.992;37.252;2024-03-17T21:57:16;82.10;;;16.08;;
46110;SDS011;31849;55.992;37.252;2024-03-17T22:02:18;76.97;;;15.40;;
46110;SDS011;31849;55.992;37.252;2024-03-17T22:07:21;65.93;;;14.80;;
46110;SDS011;31849;55.992;37.252;2024-03-17T22:12:25;65.32;;;15.07;;
46110;SDS011;31849;55.992;37.252;2024-03-17T22:17:28;74.43;;;15.55;;
46110;SDS011;31849;55.992;37.252;2024-03-17T22:22:32;61.27;;;15.63;;
46110;SDS011;31849;55.992;37.252;2024-03-17T22:27:36;66.63;;;16.17;;
46110;SDS011;31849;55.992;37.252;2024-03-17T22:32:38;56.38;;;15.95;;
46110;SDS011;31849;55.992;37.252;2024-03-17T22:37:41;71.38;;;16.73;;
46110;SDS011;31849;55.992;37.252;2024-03-17T22:42:47;81.50;;;17.27;;
46110;SDS011;31849;55.992;37.252;2024-03-17T22:47:49;65.68;;;15.57;;
46110;SDS011;31849;55.992;37.252;2024-03-17T22:52:51;66.10;;;15.98;;
46110;SDS011;31849;55.992;37.252;2024-03-17T22:57:56;58.83;;;13.95;;
46110;SDS011;31849;55.992;37.252;2024-03-17T23:02:59;59.00;;;15.10;;
46110;SDS011;31849;55.992;37.252;2024-03-17T23:08:01;54.17;;;15.52;;
46110;SDS011;31849;55.992;37.252;2024-03-17T23:13:07;69.20;;;14.95;;
46110;SDS011;31849;55.992;37.252;2024-03-17T23:18:09;69.53;;;14.70;;
46110;SDS011;31849;55.992;37.252;2024-03-17T23:23:12;78.20;;;17.05;;
46110;SDS011;31849;55.992;37.252;2024-03-17T23:28:16;62.47;;;15.50;;
46110;SDS011;31849;55.992;37.252;2024-03-17T23:33:19;66.77;;;15.83;;
46110;SDS011;31849;55.992;37.252;2024-03-17T23:38:21;73.75;;;15.13;;
46110;SDS011;31849;55.992;37.252;2024-03-17T23:43:26;75.28;;;15.95;;
46110;SDS011;31849;55.992;37.252;2024-03-17T23:48:28;72.70;;;15.17;;
46110;SDS011;31849;55.992;37.252;2024-03-17T23:53:31;73.30;;;14.30;;
46110;SDS011;31849;55.992;37.252;2024-03-17T23:58:35;58.28;;;16.58;;
